createdAt,value
2022-12-31T00:01:55.738Z,75.82
2022-12-31T00:04:22.969Z,76.18
2022-12-31T00:06:50.040Z,76.18
2022-12-31T00:09:17.110Z,75.73
2022-12-31T00:11:44.184Z,76.16
2022-12-31T00:14:11.220Z,76.24
2022-12-31T00:16:40.210Z,76.77
2022-12-31T00:19:09.543Z,76.49
2022-12-31T00:21:37.752Z,76.72
2022-12-31T00:24:06.191Z,76.36
2022-12-31T00:26:34.294Z,76.45
2022-12-31T00:29:01.746Z,76.45
2022-12-31T00:31:33.720Z,76.19
2022-12-31T00:34:01.331Z,75.91
2022-12-31T00:36:30.760Z,76.33
2022-12-31T00:39:00.675Z,76.25
2022-12-31T00:41:28.281Z,76.37
2022-12-31T00:43:55.349Z,76.38
2022-12-31T00:46:22.558Z,76.49
2022-12-31T00:48:50.031Z,76.32
2022-12-31T00:51:19.157Z,76.44
2022-12-31T00:53:46.247Z,76.63
2022-12-31T00:56:15.606Z,76.23
2022-12-31T00:58:43.060Z,76.58
2022-12-31T01:01:12.009Z,76.33
2022-12-31T01:03:39.232Z,76.54
2022-12-31T01:06:07.663Z,76.27
2022-12-31T01:08:34.945Z,76.26
2022-12-31T01:11:21.350Z,76.38
2022-12-31T01:13:54.499Z,76.44
2022-12-31T01:16:26.376Z,76.57
2022-12-31T01:18:54.210Z,76.94
2022-12-31T01:21:22.090Z,76.81
2022-12-31T01:23:49.315Z,76.88
2022-12-31T01:26:17.269Z,76.97
2022-12-31T01:28:44.593Z,77.06
2022-12-31T01:31:14.733Z,76.61
2022-12-31T01:33:42.594Z,76.57
2022-12-31T01:36:18.967Z,76.80
2022-12-31T01:38:48.850Z,76.79
2022-12-31T01:41:18.401Z,76.64
2022-12-31T01:44:03.417Z,76.69
2022-12-31T01:46:36.083Z,76.60
2022-12-31T01:49:11.135Z,76.92
2022-12-31T01:51:39.544Z,76.73
2022-12-31T01:54:08.750Z,76.66
2022-12-31T01:56:36.435Z,76.43
2022-12-31T01:59:06.612Z,76.41
2022-12-31T02:01:33.988Z,76.09
2022-12-31T02:04:07.071Z,76.46
2022-12-31T02:06:47.371Z,76.42
2022-12-31T02:09:14.799Z,76.43
2022-12-31T02:11:41.865Z,76.32
2022-12-31T02:14:24.275Z,76.29
2022-12-31T02:17:13.225Z,75.97
2022-12-31T02:19:49.661Z,76.14
2022-12-31T02:22:47.817Z,76.40
2022-12-31T02:25:45.798Z,76.33
2022-12-31T02:28:50.196Z,76.17
2022-12-31T02:31:26.723Z,76.09
2022-12-31T02:34:00.672Z,76.11
2022-12-31T02:36:34.423Z,76.36
2022-12-31T02:39:03.364Z,76.12
2022-12-31T02:41:48.825Z,76.38
2022-12-31T02:44:32.971Z,76.13
2022-12-31T02:47:09.188Z,76.34
2022-12-31T02:49:48.154Z,76.30
2022-12-31T02:52:20.718Z,76.16
2022-12-31T02:55:04.510Z,76.14
2022-12-31T02:57:40.769Z,75.88
2022-12-31T03:00:28.679Z,75.43
2022-12-31T03:02:56.048Z,75.52
2022-12-31T03:05:25.487Z,75.52
2022-12-31T03:07:53.702Z,75.77
2022-12-31T03:10:21.028Z,75.68
2022-12-31T03:12:48.939Z,75.36
2022-12-31T03:15:22.119Z,75.29
2022-12-31T03:17:56.859Z,75.23
2022-12-31T03:21:09.092Z,75.32
2022-12-31T03:23:42.050Z,75.14
2022-12-31T03:26:11.354Z,75.36
2022-12-31T03:28:47.570Z,74.93
2022-12-31T03:31:16.190Z,74.76
2022-12-31T03:33:43.561Z,74.71
2022-12-31T03:36:13.732Z,74.47
2022-12-31T03:38:41.347Z,74.74
2022-12-31T03:41:10.552Z,74.30
2022-12-31T03:43:37.649Z,74.46
2022-12-31T03:46:04.831Z,74.56
2022-12-31T03:48:31.912Z,74.28
2022-12-31T03:50:58.971Z,74.05
2022-12-31T03:53:26.117Z,74.22
2022-12-31T03:55:53.893Z,74.08
2022-12-31T03:58:21.722Z,73.88
2022-12-31T04:00:49.553Z,74.10
2022-12-31T04:03:16.701Z,73.93
2022-12-31T04:05:43.828Z,74.20
2022-12-31T04:08:10.864Z,74.22
2022-12-31T04:10:37.935Z,74.04
2022-12-31T04:13:05.265Z,74.04
2022-12-31T04:15:32.563Z,74.30
2022-12-31T04:17:59.636Z,74.38
2022-12-31T04:20:26.715Z,74.08
2022-12-31T04:22:53.832Z,74.36
2022-12-31T04:25:20.952Z,74.39
2022-12-31T04:27:48.029Z,74.53
2022-12-31T04:30:15.112Z,74.89
2022-12-31T04:32:42.507Z,74.86
2022-12-31T04:35:10.675Z,74.85
2022-12-31T04:37:37.900Z,74.96
2022-12-31T04:40:07.023Z,74.91
2022-12-31T04:42:35.118Z,74.99
2022-12-31T04:45:02.350Z,74.80
2022-12-31T04:47:29.430Z,75.19
2022-12-31T04:49:56.502Z,75.16
2022-12-31T04:52:23.623Z,75.09
2022-12-31T04:54:50.761Z,75.01
2022-12-31T04:57:17.819Z,74.81
2022-12-31T04:59:44.928Z,74.81
2022-12-31T05:02:12.196Z,74.75
2022-12-31T05:04:39.486Z,74.49
2022-12-31T05:07:06.838Z,74.39
2022-12-31T05:09:34.139Z,74.49
2022-12-31T05:12:01.229Z,74.45
2022-12-31T05:14:28.465Z,74.68
2022-12-31T05:16:55.737Z,74.10
2022-12-31T05:19:22.853Z,73.99
2022-12-31T05:22:09.903Z,74.01
2022-12-31T05:24:37.118Z,73.85
2022-12-31T05:27:04.195Z,73.94
2022-12-31T05:29:31.295Z,73.63
2022-12-31T05:31:58.391Z,73.73
2022-12-31T05:34:25.448Z,73.92
2022-12-31T05:36:52.522Z,73.94
2022-12-31T05:39:19.577Z,73.92
2022-12-31T05:41:46.623Z,73.72
2022-12-31T05:44:13.727Z,74.05
2022-12-31T05:46:40.797Z,73.96
2022-12-31T05:49:08.004Z,73.79
2022-12-31T05:51:35.053Z,73.46
2022-12-31T05:54:02.085Z,73.86
2022-12-31T05:56:29.202Z,73.49
2022-12-31T05:58:56.328Z,73.42
2022-12-31T06:01:23.522Z,73.63
2022-12-31T06:03:50.838Z,73.52
2022-12-31T06:06:17.936Z,73.46
2022-12-31T06:08:49.527Z,73.30
2022-12-31T06:11:16.580Z,73.38
2022-12-31T06:13:44.316Z,73.22
2022-12-31T06:16:13.424Z,73.35
2022-12-31T06:18:40.517Z,73.10
2022-12-31T06:21:07.691Z,73.09
2022-12-31T06:23:34.795Z,72.95
2022-12-31T06:26:05.447Z,72.85
2022-12-31T06:28:33.170Z,72.61
2022-12-31T06:31:05.089Z,72.51
2022-12-31T06:33:32.340Z,72.50
2022-12-31T06:36:01.841Z,72.44
2022-12-31T06:38:30.301Z,72.24
2022-12-31T06:40:57.580Z,72.38
2022-12-31T06:43:24.685Z,72.40
2022-12-31T06:45:51.723Z,72.15
2022-12-31T06:48:18.787Z,72.20
2022-12-31T06:50:46.025Z,71.88
2022-12-31T06:53:13.113Z,72.13
2022-12-31T06:55:40.424Z,72.17
2022-12-31T06:58:12.257Z,72.17
2022-12-31T07:00:54.279Z,72.65
2022-12-31T07:03:36.712Z,72.61
2022-12-31T07:06:15.300Z,72.82
2022-12-31T07:08:51.481Z,72.88
2022-12-31T07:11:24.086Z,72.90
2022-12-31T07:14:32.600Z,72.83
2022-12-31T07:17:21.220Z,72.88
2022-12-31T07:20:13.704Z,73.02
2022-12-31T07:22:41.098Z,73.13
2022-12-31T07:25:12.677Z,73.05
2022-12-31T07:28:01.801Z,73.06
2022-12-31T07:30:41.102Z,73.02
2022-12-31T07:33:23.596Z,72.89
2022-12-31T07:36:00.523Z,72.55
2022-12-31T07:38:40.655Z,72.81
2022-12-31T07:41:20.947Z,72.35
2022-12-31T07:43:59.281Z,72.15
2022-12-31T07:46:38.355Z,72.00
2022-12-31T07:49:10.698Z,71.95
2022-12-31T07:51:37.993Z,72.09
2022-12-31T07:54:10.161Z,71.72
2022-12-31T07:56:40.926Z,71.67
2022-12-31T07:59:22.443Z,71.42
2022-12-31T08:01:56.940Z,71.28
2022-12-31T08:04:48.817Z,71.34
2022-12-31T08:07:30.847Z,71.17
2022-12-31T08:10:17.708Z,71.01
2022-12-31T08:12:47.144Z,70.99
2022-12-31T08:15:15.583Z,70.97
2022-12-31T08:17:43.163Z,70.88
2022-12-31T08:20:17.316Z,70.60
2022-12-31T08:23:05.400Z,70.64
2022-12-31T08:25:40.705Z,70.71
2022-12-31T08:28:21.906Z,70.58
2022-12-31T08:31:00.010Z,70.50
2022-12-31T08:33:51.507Z,70.75
2022-12-31T08:36:29.692Z,70.77
2022-12-31T08:39:03.696Z,70.40
2022-12-31T08:41:43.523Z,70.30
2022-12-31T08:44:15.964Z,70.38
2022-12-31T08:46:52.937Z,70.06
2022-12-31T08:49:20.311Z,69.78
2022-12-31T08:51:47.663Z,69.66
2022-12-31T08:54:14.969Z,69.44
2022-12-31T08:57:04.808Z,69.49
2022-12-31T09:00:07.824Z,69.40
2022-12-31T09:03:00.140Z,69.25
2022-12-31T09:05:50.915Z,69.06
2022-12-31T09:08:36.841Z,69.14
2022-12-31T09:11:24.172Z,69.02
2022-12-31T09:14:02.370Z,68.71
2022-12-31T09:16:44.294Z,68.51
2022-12-31T09:19:11.608Z,68.75
2022-12-31T09:21:41.883Z,68.62
2022-12-31T09:24:11.906Z,68.58
2022-12-31T09:27:00.274Z,68.29
2022-12-31T09:29:53.604Z,68.70
2022-12-31T09:32:31.246Z,68.45
2022-12-31T09:35:05.131Z,68.26
2022-12-31T09:37:50.110Z,68.22
2022-12-31T09:40:28.819Z,68.12
2022-12-31T09:43:23.703Z,68.13
2022-12-31T09:46:11.885Z,67.87
2022-12-31T09:48:50.806Z,67.91
2022-12-31T09:51:29.624Z,67.78
2022-12-31T09:54:17.355Z,67.67
2022-12-31T09:56:47.893Z,67.36
2022-12-31T09:59:30.242Z,67.27
2022-12-31T10:02:02.595Z,66.93
2022-12-31T10:04:42.530Z,66.96
2022-12-31T10:07:24.661Z,66.92
2022-12-31T10:10:01.519Z,66.75
2022-12-31T10:12:47.351Z,66.60
2022-12-31T10:15:47.060Z,66.34
2022-12-31T10:18:31.314Z,66.13
2022-12-31T10:21:25.806Z,66.47
2022-12-31T10:24:20.305Z,66.47
2022-12-31T10:26:58.727Z,66.14
2022-12-31T10:29:32.278Z,66.21
2022-12-31T10:32:42.908Z,66.27
2022-12-31T10:35:21.029Z,66.22
2022-12-31T10:37:53.175Z,66.23
2022-12-31T10:40:20.151Z,66.15
2022-12-31T10:43:24.424Z,66.25
2022-12-31T10:46:05.275Z,66.36
2022-12-31T10:48:43.956Z,66.04
2022-12-31T10:51:26.159Z,66.23
2022-12-31T10:54:28.915Z,66.04
2022-12-31T10:57:24.692Z,66.11
2022-12-31T11:00:19.971Z,65.79
2022-12-31T11:03:05.936Z,65.95
2022-12-31T11:05:41.921Z,65.75
2022-12-31T11:08:29.042Z,65.80
2022-12-31T11:11:17.911Z,65.88
2022-12-31T11:14:22.263Z,65.49
2022-12-31T11:17:07.176Z,65.32
2022-12-31T11:20:11.692Z,64.57
2022-12-31T11:22:54.447Z,64.97
2022-12-31T11:25:37.114Z,64.78
2022-12-31T11:28:28.082Z,64.49
2022-12-31T11:31:13.101Z,64.55
2022-12-31T11:34:06.001Z,64.03
2022-12-31T11:36:51.743Z,64.08
2022-12-31T11:39:40.124Z,63.95
2022-12-31T11:42:32.414Z,64.13
2022-12-31T11:45:14.835Z,63.46
2022-12-31T11:50:51.505Z,63.84
2022-12-31T11:53:37.108Z,63.19
2022-12-31T11:56:20.391Z,63.26
2022-12-31T11:58:50.022Z,63.31
2022-12-31T12:01:28.347Z,63.29
2022-12-31T12:03:55.508Z,63.22
2022-12-31T12:06:29.016Z,63.51
2022-12-31T12:09:00.027Z,63.09
2022-12-31T12:11:32.727Z,62.86
2022-12-31T12:13:59.803Z,63.29
2022-12-31T12:16:28.185Z,62.82
2022-12-31T12:19:04.593Z,62.73
2022-12-31T12:21:31.898Z,62.44
2022-12-31T12:24:04.744Z,62.69
2022-12-31T12:26:37.585Z,62.90
2022-12-31T12:29:22.776Z,63.11
2022-12-31T12:32:07.769Z,62.90
2022-12-31T12:34:39.481Z,63.16
2022-12-31T12:37:25.867Z,62.60
2022-12-31T12:39:58.127Z,62.69
2022-12-31T12:42:25.424Z,62.56
2022-12-31T12:45:15.158Z,62.51
2022-12-31T12:47:43.313Z,62.53
2022-12-31T12:50:23.761Z,62.30
2022-12-31T12:52:59.567Z,62.09
2022-12-31T12:55:39.031Z,62.14
2022-12-31T12:58:18.567Z,61.95
2022-12-31T13:00:55.062Z,62.32
2022-12-31T13:03:35.294Z,62.32
2022-12-31T13:06:21.070Z,62.27
2022-12-31T13:09:10.016Z,62.55
2022-12-31T13:11:50.530Z,62.79
2022-12-31T13:14:39.422Z,62.56
2022-12-31T13:17:37.667Z,62.75
2022-12-31T13:20:23.602Z,62.79
2022-12-31T13:23:32.536Z,62.85
2022-12-31T13:26:14.742Z,63.09
2022-12-31T13:28:43.006Z,62.95
2022-12-31T13:31:14.654Z,63.11
2022-12-31T13:33:45.101Z,63.01
2022-12-31T13:36:17.601Z,62.95
2022-12-31T13:38:50.919Z,63.15
2022-12-31T13:41:25.881Z,62.99
2022-12-31T13:44:11.029Z,63.23
2022-12-31T13:46:47.625Z,63.42
2022-12-31T13:49:25.321Z,63.30
2022-12-31T13:51:59.311Z,63.11
2022-12-31T13:54:43.962Z,63.37
2022-12-31T13:57:45.482Z,63.57
2022-12-31T14:00:27.627Z,63.35
2022-12-31T14:03:24.698Z,63.24
2022-12-31T14:05:56.561Z,63.28
2022-12-31T14:08:23.625Z,63.12
2022-12-31T14:11:02.873Z,63.24
2022-12-31T14:14:05.396Z,63.43
2022-12-31T14:17:06.093Z,63.37
2022-12-31T14:19:52.311Z,63.59
2022-12-31T14:22:43.809Z,63.43
2022-12-31T14:25:20.525Z,63.30
2022-12-31T14:27:48.341Z,63.34
2022-12-31T14:30:19.821Z,63.71
2022-12-31T14:32:55.930Z,63.51
2022-12-31T14:35:37.615Z,63.67
2022-12-31T14:38:42.782Z,63.57
2022-12-31T14:41:15.681Z,63.73
2022-12-31T14:43:59.219Z,64.11
2022-12-31T14:47:00.543Z,63.68
2022-12-31T14:49:44.678Z,63.77
2022-12-31T14:52:29.509Z,63.66
2022-12-31T14:55:36.259Z,63.65
2022-12-31T14:58:28.031Z,63.77
2022-12-31T15:00:57.737Z,63.84
2022-12-31T15:03:30.628Z,63.90
2022-12-31T15:06:19.568Z,63.75
2022-12-31T15:08:54.382Z,63.71
2022-12-31T15:12:10.855Z,63.58
2022-12-31T15:14:58.813Z,63.80
2022-12-31T15:17:40.956Z,63.76
2022-12-31T15:20:49.213Z,63.53
2022-12-31T15:23:26.154Z,63.89
2022-12-31T15:25:58.373Z,63.86
2022-12-31T15:28:37.549Z,63.85
2022-12-31T15:31:19.114Z,64.17
2022-12-31T15:34:24.175Z,64.05
2022-12-31T15:36:54.076Z,64.17
2022-12-31T15:39:27.059Z,63.98
2022-12-31T15:44:49.222Z,64.02
2022-12-31T15:47:33.898Z,63.89
2022-12-31T15:50:07.388Z,64.12
2022-12-31T15:52:51.551Z,63.93
2022-12-31T15:55:41.602Z,63.78
2022-12-31T15:58:15.619Z,63.74
2022-12-31T16:01:04.664Z,63.56
2022-12-31T16:03:31.962Z,63.40
2022-12-31T16:06:04.690Z,63.52
2022-12-31T16:08:33.881Z,63.62
2022-12-31T16:11:03.866Z,63.22
2022-12-31T16:13:32.293Z,63.48
2022-12-31T16:16:08.348Z,63.34
2022-12-31T16:18:43.244Z,63.39
2022-12-31T16:21:24.445Z,63.20
2022-12-31T16:23:53.821Z,63.21
2022-12-31T16:26:23.190Z,63.17
2022-12-31T16:28:50.537Z,63.12
2022-12-31T16:31:20.144Z,62.63
2022-12-31T16:33:47.624Z,62.92
2022-12-31T16:36:23.437Z,63.01
2022-12-31T16:38:50.538Z,62.91
2022-12-31T16:41:19.491Z,62.94
2022-12-31T16:43:48.553Z,63.15
2022-12-31T16:46:31.470Z,63.32
2022-12-31T16:49:00.362Z,63.28
2022-12-31T16:51:32.255Z,63.36
2022-12-31T16:54:01.460Z,63.39
2022-12-31T16:56:36.789Z,63.03
2022-12-31T16:59:07.460Z,63.25
2022-12-31T17:01:36.189Z,63.09
2022-12-31T17:04:08.071Z,62.92
2022-12-31T17:06:35.124Z,62.82
2022-12-31T17:09:12.966Z,62.85
2022-12-31T17:11:56.596Z,62.68
2022-12-31T17:14:26.011Z,62.54
2022-12-31T17:17:07.445Z,62.34
2022-12-31T17:19:46.083Z,62.13
2022-12-31T17:22:31.611Z,62.12
2022-12-31T17:25:18.261Z,61.99
2022-12-31T17:27:53.594Z,61.88
2022-12-31T17:30:41.132Z,61.62
2022-12-31T17:33:08.099Z,61.74
2022-12-31T17:35:37.250Z,61.18
2022-12-31T17:38:22.729Z,60.88
2022-12-31T17:40:54.697Z,61.02
2022-12-31T17:43:23.285Z,60.64
2022-12-31T17:45:51.288Z,60.72
2022-12-31T17:48:19.621Z,60.48
2022-12-31T17:50:53.920Z,60.44
2022-12-31T17:53:21.330Z,60.47
2022-12-31T17:55:50.029Z,60.23
2022-12-31T17:58:30.033Z,60.13
2022-12-31T18:00:58.089Z,60.12
2022-12-31T18:03:25.411Z,60.19
2022-12-31T18:05:52.636Z,60.07
2022-12-31T18:08:19.876Z,60.10
2022-12-31T18:10:47.324Z,60.19
2022-12-31T18:13:17.620Z,60.02
2022-12-31T18:15:44.951Z,60.13
2022-12-31T18:18:25.583Z,59.97
2022-12-31T18:21:05.188Z,60.01
2022-12-31T18:23:41.614Z,59.70
2022-12-31T18:26:19.565Z,59.91
2022-12-31T18:28:47.002Z,60.22
2022-12-31T18:31:17.611Z,60.07
2022-12-31T18:33:44.943Z,60.06
2022-12-31T18:36:13.580Z,59.98
2022-12-31T18:38:41.215Z,60.15
2022-12-31T18:41:16.070Z,59.82
2022-12-31T18:43:43.235Z,59.91
2022-12-31T18:46:15.199Z,59.57
2022-12-31T18:48:42.438Z,59.27
2022-12-31T18:51:17.719Z,59.19
2022-12-31T18:53:45.447Z,59.13
2022-12-31T18:56:15.070Z,58.78
2022-12-31T18:58:42.548Z,58.83
2022-12-31T19:01:29.471Z,58.66
2022-12-31T19:03:58.557Z,59.10
2022-12-31T19:06:26.374Z,58.77
2022-12-31T19:08:54.077Z,58.95
2022-12-31T19:11:22.013Z,58.91
2022-12-31T19:13:49.154Z,59.00
2022-12-31T19:16:16.276Z,59.02
2022-12-31T19:18:43.629Z,59.23
2022-12-31T19:21:18.763Z,59.03
2022-12-31T19:23:46.155Z,59.10
2022-12-31T19:26:19.054Z,58.84
2022-12-31T19:28:46.755Z,59.03
2022-12-31T19:31:14.336Z,59.02
2022-12-31T19:33:42.039Z,58.98
2022-12-31T19:36:19.935Z,58.88
2022-12-31T19:38:47.269Z,58.92
2022-12-31T19:41:16.889Z,58.89
2022-12-31T19:43:44.324Z,58.55
2022-12-31T19:46:18.168Z,58.65
2022-12-31T19:48:46.045Z,58.60
2022-12-31T19:51:16.853Z,58.63
2022-12-31T19:53:44.851Z,58.27
2022-12-31T19:56:17.694Z,57.99
2022-12-31T19:58:44.819Z,57.82
2022-12-31T20:01:20.367Z,57.74
2022-12-31T20:03:47.859Z,57.61
2022-12-31T20:06:15.206Z,57.47
2022-12-31T20:08:46.438Z,57.05
2022-12-31T20:11:18.888Z,56.86
2022-12-31T20:13:46.896Z,56.86
2022-12-31T20:16:16.875Z,56.71
2022-12-31T20:18:45.940Z,56.91
2022-12-31T20:21:15.113Z,56.61
2022-12-31T20:23:42.159Z,56.48
2022-12-31T20:26:09.456Z,56.70
2022-12-31T20:28:37.259Z,56.39
2022-12-31T20:31:06.635Z,56.33
2022-12-31T20:33:34.703Z,56.14
2022-12-31T20:36:03.935Z,55.63
2022-12-31T20:38:31.243Z,55.80
2022-12-31T20:41:09.520Z,55.47
2022-12-31T20:43:36.641Z,55.34
2022-12-31T20:46:15.750Z,55.32
2022-12-31T20:48:44.510Z,55.41
2022-12-31T20:51:13.097Z,55.45
2022-12-31T20:53:40.182Z,55.41
2022-12-31T20:56:08.525Z,54.99
2022-12-31T20:58:35.899Z,55.23
2022-12-31T21:01:05.862Z,54.73
2022-12-31T21:06:22.803Z,54.03
2022-12-31T21:08:49.966Z,54.05
2022-12-31T21:11:35.517Z,53.96
2022-12-31T21:14:02.635Z,52.59
2022-12-31T21:16:29.709Z,52.43
2022-12-31T21:18:56.866Z,52.50
2022-12-31T21:21:24.079Z,51.94
2022-12-31T21:23:51.121Z,52.06
2022-12-31T21:26:18.227Z,51.96
2022-12-31T21:28:45.430Z,51.85
2022-12-31T21:31:14.071Z,51.17
2022-12-31T21:33:47.835Z,51.41
2022-12-31T21:36:15.316Z,51.19
2022-12-31T21:38:42.524Z,51.24
2022-12-31T21:41:33.592Z,51.27
2022-12-31T21:44:02.662Z,51.28
2022-12-31T21:46:30.039Z,51.25
2022-12-31T21:48:58.294Z,51.33
2022-12-31T21:51:26.023Z,51.59
2022-12-31T21:53:53.279Z,51.68
2022-12-31T21:56:21.331Z,52.02
2022-12-31T21:59:14.193Z,51.95
2022-12-31T22:01:59.952Z,52.14
2022-12-31T22:05:00.978Z,52.47
2022-12-31T22:07:14.763Z,52.37
2022-12-31T22:09:41.982Z,52.44
2022-12-31T22:12:09.022Z,52.70
2022-12-31T22:14:36.096Z,52.86
2022-12-31T22:17:03.357Z,52.68
2022-12-31T22:19:30.409Z,52.39
2022-12-31T22:21:57.465Z,52.43
2022-12-31T22:24:24.615Z,52.57
2022-12-31T22:26:53.841Z,52.73
2022-12-31T22:29:21.682Z,52.71
2022-12-31T22:31:49.087Z,52.73
2022-12-31T22:34:16.906Z,52.95
2022-12-31T22:36:44.189Z,52.72
2022-12-31T22:39:43.500Z,52.87
2022-12-31T22:42:02.748Z,53.26
2022-12-31T22:44:29.851Z,53.20
2022-12-31T22:46:57.035Z,53.27
2022-12-31T22:49:24.119Z,53.17
2022-12-31T22:51:56.485Z,53.24
2022-12-31T22:54:26.878Z,53.45
2022-12-31T22:56:54.051Z,53.56
2022-12-31T22:59:21.159Z,53.88
2022-12-31T23:01:48.263Z,53.65
2022-12-31T23:04:15.594Z,54.05
2022-12-31T23:06:45.594Z,53.90
2022-12-31T23:09:33.095Z,54.12
2022-12-31T23:12:00.168Z,54.09
2022-12-31T23:14:45.682Z,54.09
2022-12-31T23:17:36.552Z,54.12
2022-12-31T23:20:25.451Z,54.28
2022-12-31T23:23:08.789Z,54.34
2022-12-31T23:25:48.214Z,54.45
2022-12-31T23:28:21.634Z,54.47
2022-12-31T23:30:49.121Z,54.28
2022-12-31T23:33:19.327Z,54.28
2022-12-31T23:35:46.632Z,54.01
2022-12-31T23:38:16.578Z,53.87
2022-12-31T23:40:44.536Z,53.88
2022-12-31T23:43:19.616Z,53.11
2022-12-31T23:45:46.722Z,53.19
2022-12-31T23:48:13.760Z,52.78
2022-12-31T23:50:40.965Z,52.60
2022-12-31T23:53:09.019Z,52.64
2022-12-31T23:55:36.063Z,52.45
2022-12-31T23:58:03.105Z,52.36
